createdAt,value
2018-06-15T00:02:16.324Z,16.30
2018-06-15T00:04:44.157Z,16.40
2018-06-15T00:07:11.892Z,16.30
2018-06-15T00:09:39.624Z,16.30
2018-06-15T00:12:07.420Z,16.20
2018-06-15T00:14:35.473Z,16.20
2018-06-15T00:17:03.415Z,16.20
2018-06-15T00:19:31.262Z,16.00
2018-06-15T00:21:59.056Z,16.10
2018-06-15T00:24:26.928Z,16.10
2018-06-15T00:26:54.775Z,16.40
2018-06-15T00:29:22.579Z,16.40
2018-06-15T00:31:50.393Z,16.40
2018-06-15T00:36:45.813Z,16.40
2018-06-15T00:39:14.249Z,16.20
2018-06-15T00:41:43.237Z,16.20
2018-06-15T00:44:11.109Z,16.10
2018-06-15T00:46:38.898Z,16.10
2018-06-15T00:49:07.148Z,16.00
2018-06-15T00:51:35.078Z,15.90
2018-06-15T00:54:02.911Z,15.80
2018-06-15T00:56:30.988Z,15.70
2018-06-15T00:58:58.840Z,15.70
2018-06-15T01:01:26.622Z,15.70
2018-06-15T01:06:23.586Z,15.50
2018-06-15T01:08:51.538Z,15.50
2018-06-15T01:11:19.505Z,15.40
2018-06-15T01:13:47.286Z,15.50
2018-06-15T01:18:43.213Z,15.40
2018-06-15T01:21:11.041Z,15.40
2018-06-15T01:23:38.849Z,15.50
2018-06-15T01:26:06.706Z,15.40
2018-06-15T01:28:34.538Z,15.30
2018-06-15T01:31:02.369Z,15.30
2018-06-15T01:33:30.241Z,15.30
2018-06-15T01:35:58.061Z,15.30
2018-06-15T01:38:25.969Z,15.20
2018-06-15T01:40:53.890Z,15.30
2018-06-15T01:43:21.719Z,15.30
2018-06-15T01:45:49.549Z,15.30
2018-06-15T01:48:17.389Z,15.30
2018-06-15T01:50:45.237Z,15.30
2018-06-15T01:53:13.061Z,15.30
2018-06-15T01:58:08.602Z,15.30
2018-06-15T02:00:36.421Z,15.20
2018-06-15T02:03:04.241Z,15.40
2018-06-15T02:05:32.081Z,15.40
2018-06-15T02:07:59.881Z,15.40
2018-06-15T02:10:27.744Z,15.30
2018-06-15T02:12:55.565Z,15.30
2018-06-15T02:15:23.365Z,15.30
2018-06-15T02:17:51.157Z,15.20
2018-06-15T02:20:19.008Z,15.20
2018-06-15T02:22:46.872Z,15.30
2018-06-15T02:25:14.662Z,15.40
2018-06-15T02:27:42.468Z,15.30
2018-06-15T02:30:10.262Z,15.40
2018-06-15T02:32:38.052Z,15.30
2018-06-15T02:35:05.873Z,15.20
2018-06-15T02:37:33.689Z,15.30
2018-06-15T02:40:01.510Z,15.20
2018-06-15T02:44:57.038Z,15.10
2018-06-15T02:49:52.508Z,14.80
2018-06-15T02:52:20.352Z,14.80
2018-06-15T02:57:15.936Z,14.70
2018-06-15T02:59:43.773Z,14.80
2018-06-15T03:02:11.590Z,14.80
2018-06-15T03:04:39.409Z,14.80
2018-06-15T03:07:07.286Z,14.80
2018-06-15T03:09:35.141Z,14.70
2018-06-15T03:12:03.021Z,14.70
2018-06-15T03:14:30.873Z,14.60
2018-06-15T03:16:58.689Z,14.70
2018-06-15T03:19:26.598Z,14.70
2018-06-15T03:21:54.409Z,14.60
2018-06-15T03:24:22.261Z,14.70
2018-06-15T03:26:50.033Z,14.80
2018-06-15T03:29:17.833Z,14.80
2018-06-15T03:31:45.665Z,14.70
2018-06-15T03:34:13.500Z,14.70
2018-06-15T03:36:41.340Z,14.80
2018-06-15T03:41:39.103Z,14.80
2018-06-15T03:44:06.894Z,14.80
2018-06-15T03:46:35.363Z,14.70
2018-06-15T03:49:03.232Z,14.70
2018-06-15T03:53:58.701Z,14.60
2018-06-15T03:56:26.551Z,14.70
2018-06-15T03:58:54.394Z,14.60
2018-06-15T04:01:22.273Z,14.70
2018-06-15T04:03:50.150Z,14.70
2018-06-15T04:06:17.954Z,14.70
2018-06-15T04:08:45.793Z,14.60
2018-06-15T04:11:13.611Z,14.60
2018-06-15T04:13:41.404Z,14.80
2018-06-15T04:16:09.225Z,14.80
2018-06-15T04:18:37.069Z,14.90
2018-06-15T04:21:04.985Z,14.80
2018-06-15T04:23:32.799Z,14.80
2018-06-15T04:26:00.624Z,14.80
2018-06-15T04:28:28.425Z,14.80
2018-06-15T04:30:56.225Z,14.90
2018-06-15T04:33:24.081Z,15.20
2018-06-15T04:35:51.857Z,15.20
2018-06-15T04:38:19.665Z,15.30
2018-06-15T04:40:47.497Z,15.40
2018-06-15T04:43:15.313Z,15.70
2018-06-15T04:45:43.154Z,15.90
2018-06-15T04:48:11.004Z,15.70
2018-06-15T04:50:38.888Z,15.90
2018-06-15T04:53:06.742Z,15.90
2018-06-15T04:55:34.550Z,16.00
2018-06-15T04:58:02.393Z,16.00
2018-06-15T05:00:30.289Z,16.00
2018-06-15T05:02:58.125Z,16.00
2018-06-15T05:05:25.933Z,16.00
2018-06-15T05:07:53.799Z,16.00
2018-06-15T05:10:21.655Z,16.10
2018-06-15T05:12:49.616Z,16.20
2018-06-15T05:15:17.425Z,16.20
2018-06-15T05:17:45.261Z,16.30
2018-06-15T05:20:13.089Z,16.50
2018-06-15T05:22:40.930Z,16.50
2018-06-15T05:25:08.756Z,16.50
2018-06-15T05:27:36.590Z,16.50
2018-06-15T05:32:32.229Z,16.50
2018-06-15T05:35:00.069Z,16.40
2018-06-15T05:37:28.029Z,16.70
2018-06-15T05:39:55.822Z,16.70
2018-06-15T05:42:23.669Z,16.60
2018-06-15T05:44:51.609Z,16.60
2018-06-15T05:47:19.453Z,16.60
2018-06-15T05:49:47.318Z,16.60
2018-06-15T05:52:15.232Z,16.60
2018-06-15T05:54:43.565Z,16.90
2018-06-15T05:57:11.408Z,17.10
2018-06-15T05:59:39.266Z,17.10
2018-06-15T06:02:07.097Z,17.10
2018-06-15T06:04:34.912Z,17.20
2018-06-15T06:07:02.709Z,17.40
2018-06-15T06:09:30.557Z,17.60
2018-06-15T06:11:58.334Z,17.80
2018-06-15T06:14:26.128Z,18.00
2018-06-15T06:16:53.941Z,18.30
2018-06-15T06:19:21.707Z,18.80
2018-06-15T06:21:49.514Z,19.20
2018-06-15T06:24:17.274Z,19.30
2018-06-15T06:26:45.089Z,19.30
2018-06-15T06:29:12.845Z,19.50
2018-06-15T06:34:08.491Z,19.80
2018-06-15T06:36:36.274Z,19.90
2018-06-15T06:39:06.713Z,19.90
2018-06-15T06:41:34.533Z,20.10
2018-06-15T06:44:02.892Z,20.30
2018-06-15T06:46:30.715Z,20.60
2018-06-15T06:48:58.491Z,21.10
2018-06-15T06:51:26.293Z,21.30
2018-06-15T06:53:54.061Z,21.40
2018-06-15T06:56:21.813Z,21.50
2018-06-15T06:58:49.569Z,21.90
2018-06-15T07:01:17.624Z,21.90
2018-06-15T07:03:46.633Z,22.10
2018-06-15T07:06:14.396Z,22.10
2018-06-15T07:08:42.745Z,22.00
2018-06-15T07:11:10.512Z,21.90
2018-06-15T07:13:38.481Z,21.90
2018-06-15T07:16:06.224Z,22.00
2018-06-15T07:21:01.933Z,22.00
2018-06-15T07:23:29.726Z,22.20
2018-06-15T07:25:57.450Z,22.40
2018-06-15T07:28:25.269Z,22.80
2018-06-15T07:30:53.073Z,23.10
2018-06-15T07:33:20.884Z,23.40
2018-06-15T07:38:16.265Z,24.00
2018-06-15T07:40:45.075Z,23.90
2018-06-15T07:45:40.501Z,24.20
2018-06-15T07:48:08.253Z,24.30
2018-06-15T07:50:36.054Z,24.40
2018-06-15T07:53:03.813Z,24.60
2018-06-15T07:55:31.657Z,24.70
2018-06-15T07:57:59.481Z,25.00
2018-06-15T08:00:27.372Z,25.10
2018-06-15T08:02:55.170Z,25.20
2018-06-15T08:05:22.952Z,25.50
2018-06-15T08:07:50.769Z,25.70
2018-06-15T08:10:18.560Z,25.90
2018-06-15T08:15:13.989Z,26.30
2018-06-15T08:17:41.769Z,26.50
2018-06-15T08:20:09.562Z,26.70
2018-06-15T08:22:37.349Z,26.90
2018-06-15T08:25:05.115Z,27.20
2018-06-15T08:27:32.881Z,27.40
2018-06-15T08:30:00.700Z,27.50
2018-06-15T08:32:28.472Z,27.80
2018-06-15T08:34:56.213Z,27.90
2018-06-15T08:39:51.605Z,28.30
2018-06-15T08:42:19.355Z,28.40
2018-06-15T08:44:47.161Z,28.70
2018-06-15T08:47:14.927Z,28.80
2018-06-15T08:49:42.760Z,28.90
2018-06-15T08:52:10.532Z,29.10
2018-06-15T08:54:38.339Z,29.40
2018-06-15T08:59:33.716Z,29.70
2018-06-15T09:02:01.468Z,29.70
2018-06-15T09:04:29.241Z,29.80
2018-06-15T09:06:57.016Z,29.80
2018-06-15T09:09:24.768Z,29.90
2018-06-15T09:11:52.585Z,29.90
2018-06-15T09:14:20.341Z,30.00
2018-06-15T09:16:48.169Z,30.00
2018-06-15T09:19:15.961Z,30.20
2018-06-15T09:21:43.736Z,30.30
2018-06-15T09:26:39.288Z,30.50
2018-06-15T09:29:07.033Z,30.50
2018-06-15T09:34:02.441Z,30.60
2018-06-15T09:36:30.201Z,30.60
2018-06-15T09:38:58.029Z,30.60
2018-06-15T09:41:25.807Z,30.70
2018-06-15T09:43:53.844Z,30.80
2018-06-15T09:46:21.721Z,30.80
2018-06-15T09:48:49.417Z,30.70
2018-06-15T09:51:17.193Z,30.70
2018-06-15T09:53:44.953Z,30.80
2018-06-15T09:56:12.739Z,30.90
2018-06-15T09:58:40.509Z,30.90
2018-06-15T10:06:05.591Z,30.90
2018-06-15T10:08:33.924Z,30.70
2018-06-15T10:11:01.716Z,30.80
2018-06-15T10:13:29.521Z,30.80
2018-06-15T10:15:57.317Z,30.90
2018-06-15T10:18:25.069Z,30.80
2018-06-15T10:20:52.870Z,30.80
2018-06-15T10:25:48.614Z,30.90
2018-06-15T10:28:16.364Z,30.90
2018-06-15T10:30:44.134Z,30.80
2018-06-15T10:33:11.925Z,30.80
2018-06-15T10:35:40.174Z,30.80
2018-06-15T10:38:07.984Z,30.80
2018-06-15T10:40:35.767Z,30.70
2018-06-15T10:43:03.569Z,30.80
2018-06-15T10:45:31.325Z,30.50
2018-06-15T10:47:59.208Z,30.50
2018-06-15T10:50:26.979Z,30.50
2018-06-15T10:52:54.900Z,30.40
2018-06-15T10:55:22.676Z,30.40
2018-06-15T10:57:50.449Z,30.40
2018-06-15T11:00:18.281Z,30.30
2018-06-15T11:02:46.068Z,30.20
2018-06-15T11:05:13.838Z,30.20
2018-06-15T11:07:42.103Z,30.00
2018-06-15T11:10:09.893Z,29.60
2018-06-15T11:12:37.669Z,29.50
2018-06-15T11:15:05.713Z,29.20
2018-06-15T11:17:34.705Z,28.90
2018-06-15T11:20:02.629Z,28.80
2018-06-15T11:22:30.465Z,28.80
2018-06-15T11:24:58.710Z,28.80
2018-06-15T11:27:26.477Z,28.80
2018-06-15T11:29:54.517Z,28.70
2018-06-15T11:32:22.393Z,28.80
2018-06-15T11:34:50.170Z,28.70
2018-06-15T11:37:18.061Z,28.50
2018-06-15T11:39:45.926Z,28.50
2018-06-15T11:44:41.341Z,28.60
2018-06-15T11:47:09.085Z,28.70
2018-06-15T11:49:37.178Z,28.90
2018-06-15T11:52:04.925Z,29.10
2018-06-15T11:54:32.678Z,29.20
2018-06-15T11:57:00.460Z,29.30
2018-06-15T11:59:28.219Z,29.40
2018-06-15T12:01:56.009Z,29.40
2018-06-15T12:04:23.793Z,29.30
2018-06-15T12:06:51.601Z,29.40
2018-06-15T12:09:19.353Z,29.40
2018-06-15T12:11:47.129Z,29.30
2018-06-15T12:14:14.893Z,29.30
2018-06-15T12:16:42.648Z,29.20
2018-06-15T12:19:10.433Z,29.20
2018-06-15T12:21:38.197Z,29.10
2018-06-15T12:24:05.965Z,29.20
2018-06-15T12:26:33.765Z,29.20
2018-06-15T12:29:01.539Z,29.20
2018-06-15T12:33:56.963Z,29.20
2018-06-15T12:36:24.705Z,29.20
2018-06-15T12:38:52.473Z,29.10
2018-06-15T12:41:20.335Z,29.00
2018-06-15T12:43:48.141Z,29.10
2018-06-15T12:46:15.901Z,29.20
2018-06-15T12:51:11.372Z,29.00
2018-06-15T12:53:39.171Z,29.00
2018-06-15T12:58:34.539Z,29.00
2018-06-15T13:01:02.321Z,29.00
2018-06-15T13:03:30.085Z,29.00
2018-06-15T13:05:57.884Z,29.10
2018-06-15T13:08:25.657Z,29.20
2018-06-15T13:10:53.397Z,29.30
2018-06-15T13:13:21.193Z,29.30
2018-06-15T13:15:48.957Z,29.20
2018-06-15T13:18:16.732Z,29.20
2018-06-15T13:20:44.515Z,29.30
2018-06-15T13:23:12.294Z,29.30
2018-06-15T13:25:40.037Z,29.30
2018-06-15T13:28:07.830Z,29.30
2018-06-15T13:30:35.589Z,29.30
2018-06-15T13:33:03.439Z,29.40
2018-06-15T13:35:31.182Z,29.50
2018-06-15T13:40:26.597Z,29.30
2018-06-15T13:42:54.437Z,29.30
2018-06-15T13:45:22.201Z,29.30
2018-06-15T13:47:49.953Z,29.30
2018-06-15T13:50:17.750Z,29.20
2018-06-15T13:52:45.519Z,29.30
2018-06-15T13:55:13.369Z,29.20
2018-06-15T13:57:41.275Z,29.30
2018-06-15T14:00:09.016Z,29.20
2018-06-15T14:02:36.776Z,29.20
2018-06-15T14:05:04.633Z,29.20
2018-06-15T14:07:32.411Z,29.20
2018-06-15T14:10:00.145Z,29.20
2018-06-15T14:12:27.995Z,29.30
2018-06-15T14:14:55.745Z,29.10
2018-06-15T14:17:23.505Z,29.00
2018-06-15T14:19:51.266Z,28.90
2018-06-15T14:24:46.673Z,28.60
2018-06-15T14:27:14.414Z,28.60
2018-06-15T14:29:42.256Z,28.60
2018-06-15T14:32:10.025Z,28.50
2018-06-15T14:34:37.827Z,28.60
2018-06-15T14:37:05.603Z,28.70
2018-06-15T14:42:01.017Z,28.60
2018-06-15T14:44:28.801Z,28.50
2018-06-15T14:46:56.562Z,28.40
2018-06-15T14:49:24.313Z,28.30
2018-06-15T14:51:52.129Z,28.40
2018-06-15T14:54:19.898Z,28.40
2018-06-15T14:56:47.743Z,28.40
2018-06-15T14:59:15.527Z,28.50
2018-06-15T15:01:43.309Z,28.50
2018-06-15T15:04:11.089Z,28.60
2018-06-15T15:06:38.853Z,28.50
2018-06-15T15:09:07.082Z,28.70
2018-06-15T15:11:34.884Z,28.90
2018-06-15T15:14:02.800Z,28.80
2018-06-15T15:16:30.617Z,28.80
2018-06-15T15:18:58.369Z,28.80
2018-06-15T15:21:26.110Z,28.80
2018-06-15T15:23:53.904Z,28.70
2018-06-15T15:26:21.657Z,28.70
2018-06-15T15:28:49.557Z,28.60
2018-06-15T15:31:17.309Z,28.70
2018-06-15T15:33:45.124Z,28.60
2018-06-15T15:38:40.484Z,28.40
2018-06-15T15:41:08.302Z,28.30
2018-06-15T15:43:36.066Z,28.40
2018-06-15T15:46:03.854Z,28.30
2018-06-15T15:48:31.638Z,28.30
2018-06-15T15:50:59.409Z,28.20
2018-06-15T15:53:27.164Z,28.10
2018-06-15T15:55:54.953Z,28.10
2018-06-15T15:58:23.049Z,28.00
2018-06-15T16:00:51.001Z,28.00
2018-06-15T16:03:18.776Z,27.90
2018-06-15T16:05:46.585Z,27.90
2018-06-15T16:08:14.333Z,27.80
2018-06-15T16:10:42.145Z,27.90
2018-06-15T16:13:09.922Z,27.90
2018-06-15T16:15:37.774Z,27.90
2018-06-15T16:18:05.554Z,27.80
2018-06-15T16:20:33.347Z,27.80
2018-06-15T16:23:01.625Z,27.70
2018-06-15T16:27:57.209Z,27.60
2018-06-15T16:30:25.041Z,27.60
2018-06-15T16:35:46.180Z,27.60
2018-06-15T16:38:13.945Z,27.40
2018-06-15T16:40:41.697Z,27.40
2018-06-15T17:00:01.473Z,26.80
2018-06-15T17:02:29.265Z,26.70
2018-06-15T17:04:56.996Z,26.70
2018-06-15T17:07:24.773Z,26.70
2018-06-15T17:09:52.598Z,26.60
2018-06-15T17:12:20.381Z,26.50
2018-06-15T17:14:48.141Z,26.40
2018-06-15T17:17:15.961Z,26.30
2018-06-15T17:19:44.435Z,26.40
2018-06-15T17:22:12.567Z,26.30
2018-06-15T17:24:40.324Z,26.20
2018-06-15T17:27:08.079Z,26.10
2018-06-15T17:29:35.849Z,26.00
2018-06-15T17:32:03.636Z,26.00
2018-06-15T17:34:31.625Z,25.90
2018-06-15T17:39:27.057Z,25.80
2018-06-15T17:41:54.869Z,25.70
2018-06-15T17:44:22.625Z,25.60
2018-06-15T17:46:50.389Z,25.40
2018-06-15T17:49:18.169Z,25.40
2018-06-15T17:51:45.921Z,25.30
2018-06-15T17:54:13.680Z,25.20
2018-06-15T17:56:41.484Z,25.10
2018-06-15T17:59:09.241Z,25.10
2018-06-15T18:01:37.005Z,25.00
2018-06-15T18:04:04.788Z,24.90
2018-06-15T18:06:32.581Z,24.90
2018-06-15T18:11:28.079Z,24.70
2018-06-15T18:13:56.381Z,24.70
2018-06-15T18:16:24.857Z,24.70
2018-06-15T18:21:21.094Z,24.70
2018-06-15T18:23:48.875Z,24.60
2018-06-15T18:26:16.644Z,24.50
2018-06-15T18:28:44.460Z,24.40
2018-06-15T18:31:12.584Z,24.40
2018-06-15T18:33:40.775Z,24.30
2018-06-15T18:36:08.953Z,24.20
2018-06-15T18:38:36.752Z,24.20
2018-06-15T18:41:04.541Z,24.10
2018-06-15T18:43:32.345Z,24.10
2018-06-15T18:46:00.121Z,24.10
2018-06-15T18:48:27.904Z,24.10
2018-06-15T18:50:55.688Z,24.00
2018-06-15T18:53:23.465Z,23.90
2018-06-15T18:55:51.830Z,23.90
2018-06-15T18:58:20.302Z,23.80
2018-06-15T19:00:48.393Z,23.80
2018-06-15T19:03:16.516Z,23.70
2018-06-15T19:05:44.839Z,23.70
2018-06-15T19:08:13.090Z,23.60
2018-06-15T19:10:41.355Z,23.60
2018-06-15T19:13:09.613Z,23.50
2018-06-15T19:15:37.882Z,23.40
2018-06-15T19:18:05.702Z,23.40
2018-06-15T19:20:33.561Z,23.30
2018-06-15T19:23:01.355Z,23.20
2018-06-15T19:25:29.076Z,23.10
2018-06-15T19:27:56.872Z,23.00
2018-06-15T19:30:24.709Z,23.00
2018-06-15T19:32:52.477Z,22.90
2018-06-15T19:35:20.244Z,22.90
2018-06-15T19:37:48.009Z,22.80
2018-06-15T19:40:15.817Z,22.70
2018-06-15T19:42:43.565Z,22.70
2018-06-15T19:45:11.342Z,22.50
2018-06-15T19:47:39.176Z,22.50
2018-06-15T19:50:06.957Z,22.50
2018-06-15T19:52:34.741Z,22.40
2018-06-15T19:55:02.508Z,22.30
2018-06-15T19:59:57.925Z,22.30
2018-06-15T20:02:25.697Z,22.20
2018-06-15T20:04:54.353Z,22.10
2018-06-15T20:07:22.169Z,22.10
2018-06-15T20:09:49.925Z,22.10
2018-06-15T20:12:17.697Z,22.10
2018-06-15T20:14:45.585Z,22.00
2018-06-15T20:17:14.028Z,22.00
2018-06-15T20:19:43.195Z,21.90
2018-06-15T20:22:11.393Z,21.80
2018-06-15T20:24:39.165Z,21.80
2018-06-15T20:27:06.940Z,21.70
2018-06-15T20:29:34.749Z,21.70
2018-06-15T20:32:02.518Z,21.70
2018-06-15T20:34:31.296Z,21.60
2018-06-15T20:36:59.681Z,21.60
2018-06-15T20:39:27.890Z,21.70
2018-06-15T20:41:55.974Z,21.60
2018-06-15T20:44:24.569Z,21.70
2018-06-15T20:46:52.908Z,21.80
2018-06-15T20:49:21.415Z,21.80
2018-06-15T20:51:49.890Z,21.80
2018-06-15T20:54:18.139Z,21.90
2018-06-15T20:56:46.481Z,21.90
2018-06-15T20:59:14.365Z,22.00
2018-06-15T21:01:42.181Z,21.90
2018-06-15T21:04:10.001Z,21.90
2018-06-15T21:06:37.793Z,21.90
2018-06-15T21:09:07.141Z,21.90
2018-06-15T21:11:34.945Z,21.80
2018-06-15T21:14:03.064Z,21.70
2018-06-15T21:16:30.864Z,21.70
2018-06-15T21:18:59.915Z,21.60
2018-06-15T21:21:27.689Z,21.60
2018-06-15T21:23:55.754Z,21.60
2018-06-15T21:26:23.504Z,21.50
2018-06-15T21:28:51.265Z,21.30
2018-06-15T21:31:19.694Z,21.30
2018-06-15T21:33:47.481Z,21.10
2018-06-15T21:36:15.272Z,21.00
2018-06-15T21:38:43.041Z,21.10
2018-06-15T21:41:10.856Z,21.10
2018-06-15T21:43:38.643Z,21.10
2018-06-15T21:46:06.440Z,21.00
2018-06-15T21:48:34.245Z,21.10
2018-06-15T21:51:02.007Z,20.80
2018-06-15T21:53:29.805Z,20.90
2018-06-15T21:55:57.576Z,20.70
2018-06-15T21:58:25.393Z,20.80
2018-06-15T22:00:53.430Z,20.70
2018-06-15T22:03:21.824Z,20.60
2018-06-15T22:05:50.224Z,20.50
2018-06-15T22:08:18.069Z,20.50
2018-06-15T22:10:45.873Z,20.40
2018-06-15T22:13:13.661Z,20.40
2018-06-15T22:15:41.461Z,20.30
2018-06-15T22:18:09.261Z,20.30
2018-06-15T22:20:37.057Z,20.20
2018-06-15T22:23:04.881Z,20.20
2018-06-15T22:25:33.503Z,20.10
2018-06-15T22:28:01.297Z,20.00
2018-06-15T22:30:29.068Z,20.20
2018-06-15T22:32:57.984Z,20.10
2018-06-15T22:35:25.798Z,20.20
2018-06-15T22:37:53.549Z,20.10
2018-06-15T22:40:21.440Z,20.10
2018-06-15T22:42:49.221Z,19.80
2018-06-15T22:45:16.993Z,19.60
2018-06-15T22:47:44.769Z,19.40
2018-06-15T22:50:12.560Z,19.30
2018-06-15T22:52:40.320Z,19.40
2018-06-15T22:55:08.116Z,19.50
2018-06-15T22:57:35.904Z,19.30
2018-06-15T23:00:04.218Z,19.20
2018-06-15T23:02:31.961Z,19.30
2018-06-15T23:04:59.712Z,19.40
2018-06-15T23:07:27.527Z,19.40
2018-06-15T23:09:55.352Z,19.40
2018-06-15T23:12:23.165Z,19.30
2018-06-15T23:14:50.924Z,19.20
2018-06-15T23:17:18.681Z,19.10
2018-06-15T23:22:14.077Z,19.00
2018-06-15T23:24:41.860Z,19.10
2018-06-15T23:27:09.609Z,19.30
2018-06-15T23:29:37.380Z,19.00
2018-06-15T23:32:05.149Z,18.80
2018-06-15T23:34:32.981Z,18.70
2018-06-15T23:37:00.742Z,18.60
2018-06-15T23:39:28.529Z,18.50
2018-06-15T23:41:56.301Z,18.50
2018-06-15T23:44:24.044Z,18.40
2018-06-15T23:46:51.808Z,18.40
2018-06-15T23:49:19.598Z,18.30
2018-06-15T23:51:47.365Z,18.30
2018-06-15T23:56:42.777Z,18.20
2018-06-15T23:59:10.545Z,18.10
